createdAt,value
2018-06-02T00:04:39.231Z,100966.17
2018-06-02T00:09:30.886Z,100970.37
2018-06-02T00:14:21.816Z,100973.46
2018-06-02T00:19:12.700Z,100971.27
2018-06-02T00:24:04.321Z,100964.71
2018-06-02T00:28:56.773Z,100971.02
2018-06-02T00:33:49.170Z,100967.91
2018-06-02T00:38:40.074Z,100969.23
2018-06-02T00:43:31.744Z,100972.45
2018-06-02T00:48:23.383Z,100976.42
2018-06-02T00:53:14.399Z,100971.02
2018-06-02T00:58:05.296Z,100963.56
2018-06-02T01:02:56.929Z,100964.94
2018-06-02T01:07:49.334Z,100969.92
2018-06-02T01:12:40.962Z,100972.81
2018-06-02T01:17:31.907Z,100971.70
2018-06-02T01:22:24.283Z,100970.73
2018-06-02T01:27:15.912Z,100973.83
2018-06-02T01:32:08.302Z,100974.91
2018-06-02T01:36:59.210Z,100972.36
2018-06-02T01:41:50.859Z,100967.47
2018-06-02T01:46:41.747Z,100966.70
2018-06-02T01:51:34.142Z,100971.70
2018-06-02T01:56:25.921Z,100975.66
2018-06-02T02:01:18.272Z,100970.37
2018-06-02T02:06:09.887Z,100978.71
2018-06-02T02:11:00.851Z,100970.55
2018-06-02T02:15:51.767Z,100970.67
2018-06-02T02:20:42.670Z,100975.20
2018-06-02T02:25:33.590Z,100972.05
2018-06-02T02:30:24.505Z,100977.28
2018-06-02T02:35:15.416Z,100984.66
2018-06-02T02:40:06.317Z,100996.56
2018-06-02T02:44:57.214Z,100989.92
2018-06-02T02:49:49.581Z,100987.33
2018-06-02T02:54:40.444Z,100989.68
2018-06-02T02:59:33.144Z,100987.89
2018-06-02T03:04:24.835Z,100994.81
2018-06-02T03:09:16.547Z,100995.19
2018-06-02T03:14:07.448Z,100999.94
2018-06-02T03:18:59.112Z,101005.31
2018-06-02T03:23:50.747Z,100992.74
2018-06-02T03:28:42.410Z,101001.78
2018-06-02T03:33:35.132Z,101005.75
2018-06-02T03:38:26.076Z,101004.80
2018-06-02T03:43:17.722Z,101009.67
2018-06-02T03:48:08.640Z,101004.47
2018-06-02T03:52:59.506Z,101004.80
2018-06-02T03:57:51.892Z,101005.08
2018-06-02T04:02:42.815Z,100998.23
2018-06-02T04:07:34.467Z,101001.73
2018-06-02T04:12:26.116Z,101002.69
2018-06-02T04:17:17.040Z,101010.50
2018-06-02T04:22:08.689Z,101012.34
2018-06-02T04:27:00.309Z,101012.92
2018-06-02T04:31:51.316Z,101013.48
2018-06-02T04:36:42.961Z,101012.08
2018-06-02T04:41:33.919Z,101015.43
2018-06-02T04:46:25.470Z,101021.67
2018-06-02T04:51:17.131Z,101029.03
2018-06-02T04:56:08.793Z,101023.17
2018-06-02T05:00:59.704Z,101027.25
2018-06-02T05:05:50.639Z,101023.14
2018-06-02T05:10:41.545Z,101027.88
2018-06-02T05:15:32.435Z,101025.98
2018-06-02T05:20:24.329Z,101029.74
2018-06-02T05:25:16.066Z,101029.77
2018-06-02T05:30:06.965Z,101035.41
2018-06-02T05:34:57.854Z,101034.81
2018-06-02T05:39:49.492Z,101032.89
2018-06-02T05:44:41.197Z,101040.19
2018-06-02T05:49:32.084Z,101040.21
2018-06-02T05:54:22.987Z,101041.44
2018-06-02T05:59:14.606Z,101042.28
2018-06-02T06:04:06.321Z,101044.61
2018-06-02T06:08:58.695Z,101040.77
2018-06-02T06:13:50.324Z,101031.11
2018-06-02T06:18:41.208Z,101035.36
2018-06-02T06:23:32.137Z,101034.05
2018-06-02T06:28:23.035Z,101039.85
2018-06-02T06:33:14.022Z,101041.98
2018-06-02T06:38:04.846Z,101043.64
2018-06-02T06:42:56.539Z,101044.93
2018-06-02T06:47:47.458Z,101051.51
2018-06-02T06:52:38.358Z,101048.41
2018-06-02T06:57:30.007Z,101040.13
2018-06-02T07:02:21.654Z,101038.73
2018-06-02T07:07:13.296Z,101044.15
2018-06-02T07:12:05.035Z,101047.64
2018-06-02T07:16:56.735Z,101046.72
2018-06-02T07:21:47.672Z,101055.77
2018-06-02T07:26:38.598Z,101060.86
2018-06-02T07:31:30.208Z,101062.01
2018-06-02T07:36:21.108Z,101067.31
2018-06-02T07:41:12.760Z,101064.36
2018-06-02T07:46:04.411Z,101062.90
2018-06-02T07:50:55.354Z,101068.35
2018-06-02T07:55:46.225Z,101065.88
2018-06-02T08:00:37.148Z,101070.02
2018-06-02T08:05:29.573Z,101066.09
2018-06-02T08:10:21.236Z,101064.64
2018-06-02T08:15:12.115Z,101062.55
2018-06-02T08:20:03.767Z,101059.45
2018-06-02T08:24:54.819Z,101063.19
2018-06-02T08:29:47.185Z,101072.67
2018-06-02T08:34:39.558Z,101075.86
2018-06-02T08:39:31.195Z,101079.60
2018-06-02T08:44:22.882Z,101091.75
2018-06-02T08:49:13.773Z,101099.84
2018-06-02T08:54:05.414Z,101095.78
2018-06-02T08:58:57.075Z,101088.83
2018-06-02T09:03:48.703Z,101085.88
2018-06-02T09:08:39.618Z,101088.62
2018-06-02T09:13:30.531Z,101091.22
2018-06-02T09:18:22.176Z,101097.47
2018-06-02T09:23:13.816Z,101098.47
2018-06-02T09:28:05.475Z,101102.05
2018-06-02T09:32:56.356Z,101098.86
2018-06-02T09:37:47.993Z,101101.91
2018-06-02T09:42:39.677Z,101101.90
2018-06-02T09:47:30.612Z,101105.47
2018-06-02T09:52:21.529Z,101089.42
2018-06-02T09:57:12.449Z,101088.22
2018-06-02T10:02:03.399Z,101092.21
2018-06-02T10:06:55.784Z,101101.62
2018-06-02T10:11:47.493Z,101098.86
2018-06-02T10:16:39.878Z,101099.66
2018-06-02T10:21:31.541Z,101101.37
2018-06-02T10:26:22.452Z,101087.43
2018-06-02T10:31:13.398Z,101078.25
2018-06-02T10:36:04.299Z,101088.49
2018-06-02T10:40:55.232Z,101089.55
2018-06-02T10:45:46.150Z,101089.16
2018-06-02T10:50:37.052Z,101084.45
2018-06-02T10:55:27.964Z,101078.70
2018-06-02T11:00:18.854Z,101088.34
2018-06-02T11:05:11.242Z,101088.17
2018-06-02T11:10:02.203Z,101077.87
2018-06-02T11:14:53.854Z,101092.39
2018-06-02T11:19:44.809Z,101089.22
2018-06-02T11:24:36.458Z,101085.20
2018-06-02T11:29:28.119Z,101091.37
2018-06-02T11:34:19.746Z,101084.78
2018-06-02T11:39:11.406Z,101090.19
2018-06-02T11:44:02.287Z,101090.50
2018-06-02T11:48:53.957Z,101090.20
2018-06-02T11:53:44.896Z,101089.95
2018-06-02T11:58:36.553Z,101096.12
2018-06-02T12:03:27.521Z,101099.64
2018-06-02T12:08:18.469Z,101108.05
2018-06-02T12:13:11.212Z,101104.23
2018-06-02T12:18:03.127Z,101092.88
2018-06-02T12:22:54.051Z,101081.41
2018-06-02T12:27:45.745Z,101086.70
2018-06-02T12:32:36.652Z,101083.30
2018-06-02T12:37:27.522Z,101086.70
2018-06-02T12:42:19.136Z,101091.14
2018-06-02T12:47:10.791Z,101088.98
2018-06-02T12:52:01.699Z,101081.59
2018-06-02T12:56:53.358Z,101080.77
2018-06-02T13:01:45.101Z,101076.05
2018-06-02T13:06:36.859Z,101076.92
2018-06-02T13:11:27.787Z,101083.12
2018-06-02T13:16:19.407Z,101085.72
2018-06-02T13:21:11.108Z,101081.74
2018-06-02T13:26:02.712Z,101078.81
2018-06-02T13:30:54.361Z,101073.24
2018-06-02T13:35:45.236Z,101059.88
2018-06-02T13:40:37.622Z,101055.00
2018-06-02T13:45:29.333Z,101046.22
2018-06-02T13:50:21.731Z,101042.28
2018-06-02T13:55:13.380Z,101058.16
2018-06-02T14:00:05.041Z,101057.22
2018-06-02T14:04:55.919Z,101055.16
2018-06-02T14:09:47.591Z,101065.02
2018-06-02T14:14:39.229Z,101074.67
2018-06-02T14:19:30.848Z,101084.17
2018-06-02T14:24:22.513Z,101080.69
2018-06-02T14:29:13.410Z,101086.83
2018-06-02T14:34:04.309Z,101077.63
2018-06-02T14:38:55.955Z,101068.02
2018-06-02T14:43:47.717Z,101078.16
2018-06-02T14:48:39.355Z,101079.02
2018-06-02T14:53:30.260Z,101082.03
2018-06-02T14:58:21.881Z,101079.59
2018-06-02T15:03:12.878Z,101068.13
2018-06-02T15:08:03.754Z,101060.56
2018-06-02T15:12:54.705Z,101071.09
2018-06-02T15:17:45.640Z,101069.19
2018-06-02T15:22:36.485Z,101074.95
2018-06-02T15:27:28.146Z,101077.64
2018-06-02T15:32:19.043Z,101078.98
2018-06-02T15:37:10.681Z,101079.73
2018-06-02T15:42:02.346Z,101088.13
2018-06-02T15:46:53.262Z,101084.34
2018-06-02T15:51:44.163Z,101086.34
2018-06-02T15:56:35.826Z,101096.50
2018-06-02T16:01:27.472Z,101108.45
2018-06-02T16:06:19.120Z,101112.12
2018-06-02T16:11:10.042Z,101106.41
2018-06-02T16:16:01.048Z,101112.99
2018-06-02T16:20:52.038Z,101116.28
2018-06-02T16:25:43.687Z,101125.14
2018-06-02T16:30:34.600Z,101132.95
2018-06-02T16:35:26.969Z,101143.53
2018-06-02T16:40:17.965Z,101142.80
2018-06-02T16:45:10.373Z,101138.44
2018-06-02T16:50:01.311Z,101134.79
2018-06-02T16:54:53.774Z,101129.94
2018-06-02T16:59:46.199Z,101124.91
2018-06-02T17:04:37.197Z,101118.00
2018-06-02T17:09:28.821Z,101126.89
2018-06-02T17:14:20.493Z,101134.77
2018-06-02T17:19:11.421Z,101154.27
2018-06-02T17:24:02.328Z,101166.07
2018-06-02T17:28:53.224Z,101172.56
2018-06-02T17:33:44.137Z,101178.75
2018-06-02T17:38:35.786Z,101168.26
2018-06-02T17:43:26.636Z,101164.19
2018-06-02T17:48:17.541Z,101173.39
2018-06-02T17:53:08.464Z,101170.70
2018-06-02T17:57:59.351Z,101164.53
2018-06-02T18:02:50.988Z,101171.93
2018-06-02T18:07:42.661Z,101175.08
2018-06-02T18:12:33.588Z,101183.22
2018-06-02T18:17:24.466Z,101183.84
2018-06-02T18:22:16.114Z,101173.63
2018-06-02T18:27:07.021Z,101176.44
2018-06-02T18:31:59.837Z,101189.16
2018-06-02T18:36:50.772Z,101191.30
2018-06-02T18:41:41.648Z,101184.64
2018-06-02T18:46:32.552Z,101187.41
2018-06-02T18:51:24.245Z,101184.86
2018-06-02T18:56:15.166Z,101187.45
2018-06-02T19:01:06.066Z,101178.41
2018-06-02T19:05:57.729Z,101183.48
2018-06-02T19:10:48.612Z,101182.84
2018-06-02T19:15:39.546Z,101186.00
2018-06-02T19:20:30.451Z,101190.52
2018-06-02T19:25:22.867Z,101179.48
2018-06-02T19:30:13.737Z,101179.14
2018-06-02T19:35:04.601Z,101177.42
2018-06-02T19:39:55.509Z,101184.94
2018-06-02T19:44:47.498Z,101186.66
2018-06-02T19:49:39.172Z,101189.15
2018-06-02T19:54:30.171Z,101184.27
2018-06-02T19:59:21.092Z,101195.33
2018-06-02T20:04:11.992Z,101189.67
2018-06-02T20:09:02.968Z,101201.70
2018-06-02T20:13:54.592Z,101203.89
2018-06-02T20:18:45.472Z,101212.31
2018-06-02T20:23:37.103Z,101206.14
2018-06-02T20:28:28.000Z,101204.53
2018-06-02T20:33:19.644Z,101196.94
2018-06-02T20:38:10.549Z,101202.23
2018-06-02T20:43:02.951Z,101205.48
2018-06-02T20:47:54.571Z,101205.06
2018-06-02T20:52:45.460Z,101204.33
2018-06-02T20:57:37.075Z,101204.33
2018-06-02T21:02:29.492Z,101200.25
2018-06-02T21:07:21.119Z,101192.13
2018-06-02T21:12:13.554Z,101198.31
2018-06-02T21:17:04.459Z,101199.23
2018-06-02T21:21:55.360Z,101203.11
2018-06-02T21:26:46.247Z,101207.74
2018-06-02T21:31:37.137Z,101213.50
2018-06-02T21:36:28.798Z,101220.05
2018-06-02T21:41:19.743Z,101219.53
2018-06-02T21:46:10.705Z,101217.56
2018-06-02T21:51:02.337Z,101222.95
2018-06-02T21:55:53.972Z,101221.61
2018-06-02T22:00:45.610Z,101220.13
2018-06-02T22:05:37.223Z,101229.90
2018-06-02T22:10:28.127Z,101235.13
2018-06-02T22:15:20.532Z,101237.22
2018-06-02T22:20:12.178Z,101246.17
2018-06-02T22:25:04.577Z,101257.26
2018-06-02T22:29:55.473Z,101258.11
2018-06-02T22:34:47.136Z,101258.52
2018-06-02T22:39:38.046Z,101260.39
2018-06-02T22:44:29.749Z,101264.31
2018-06-02T22:49:22.478Z,101261.83
2018-06-02T22:54:14.145Z,101259.98
2018-06-02T22:59:05.829Z,101261.05
2018-06-02T23:03:58.624Z,101262.20
2018-06-02T23:08:49.523Z,101262.33
2018-06-02T23:13:40.438Z,101261.42
2018-06-02T23:18:32.105Z,101265.26
2018-06-02T23:23:23.775Z,101266.31
2018-06-02T23:28:15.428Z,101264.30
2018-06-02T23:33:07.096Z,101269.67
2018-06-02T23:37:58.753Z,101273.61
2018-06-02T23:42:51.448Z,101262.20
2018-06-02T23:47:42.348Z,101269.91
2018-06-02T23:52:34.766Z,101265.50
2018-06-02T23:57:27.163Z,101261.97
